sensor_id;sensor_type;location;lat;lon;timestamp;P1;durP1;ratioP1;P2;durP2;ratioP2
12625;SDS011;6378;42.684;23.372;2022-07-10T00:01:25;18.73;;;16.80;;
12625;SDS011;6378;42.684;23.372;2022-07-10T00:03:50;18.48;;;15.77;;
12625;SDS011;6378;42.684;23.372;2022-07-10T00:06:16;17.45;;;15.77;;
12625;SDS011;6378;42.684;23.372;2022-07-10T00:08:42;18.25;;;16.40;;
12625;SDS011;6378;42.684;23.372;2022-07-10T00:11:10;18.35;;;15.80;;
12625;SDS011;6378;42.684;23.372;2022-07-10T00:13:35;17.73;;;16.02;;
12625;SDS011;6378;42.684;23.372;2022-07-10T00:16:01;19.23;;;17.15;;
12625;SDS011;6378;42.684;23.372;2022-07-10T00:18:27;18.55;;;16.55;;
12625;SDS011;6378;42.684;23.372;2022-07-10T00:20:56;19.52;;;17.42;;
12625;SDS011;6378;42.684;23.372;2022-07-10T00:23:21;17.90;;;16.15;;
12625;SDS011;6378;42.684;23.372;2022-07-10T00:25:47;18.75;;;16.73;;
12625;SDS011;6378;42.684;23.372;2022-07-10T00:28:12;18.75;;;16.85;;
12625;SDS011;6378;42.684;23.372;2022-07-10T00:30:38;19.05;;;16.55;;
12625;SDS011;6378;42.684;23.372;2022-07-10T00:33:03;19.23;;;17.17;;
12625;SDS011;6378;42.684;23.372;2022-07-10T00:35:29;19.13;;;17.20;;
12625;SDS011;6378;42.684;23.372;2022-07-10T00:37:55;18.35;;;16.45;;
12625;SDS011;6378;42.684;23.372;2022-07-10T00:40:21;18.35;;;16.55;;
12625;SDS011;6378;42.684;23.372;2022-07-10T00:42:46;18.75;;;16.77;;
12625;SDS011;6378;42.684;23.372;2022-07-10T00:45:13;19.17;;;17.25;;
12625;SDS011;6378;42.684;23.372;2022-07-10T00:47:38;18.58;;;16.77;;
12625;SDS011;6378;42.684;23.372;2022-07-10T00:50:04;18.48;;;16.63;;
12625;SDS011;6378;42.684;23.372;2022-07-10T00:52:31;19.50;;;16.45;;
12625;SDS011;6378;42.684;23.372;2022-07-10T00:55:00;17.98;;;16.08;;
12625;SDS011;6378;42.684;23.372;2022-07-10T00:57:27;19.85;;;17.15;;
12625;SDS011;6378;42.684;23.372;2022-07-10T00:59:52;18.55;;;16.65;;
12625;SDS011;6378;42.684;23.372;2022-07-10T01:02:18;20.00;;;17.05;;
12625;SDS011;6378;42.684;23.372;2022-07-10T01:04:44;19.73;;;17.73;;
12625;SDS011;6378;42.684;23.372;2022-07-10T01:07:09;21.60;;;18.17;;
12625;SDS011;6378;42.684;23.372;2022-07-10T01:09:35;18.35;;;16.45;;
12625;SDS011;6378;42.684;23.372;2022-07-10T01:12:02;22.08;;;17.40;;
12625;SDS011;6378;42.684;23.372;2022-07-10T01:14:29;18.55;;;16.50;;
12625;SDS011;6378;42.684;23.372;2022-07-10T01:16:55;19.20;;;16.35;;
12625;SDS011;6378;42.684;23.372;2022-07-10T01:19:22;18.65;;;16.58;;
12625;SDS011;6378;42.684;23.372;2022-07-10T01:21:48;17.55;;;15.75;;
12625;SDS011;6378;42.684;23.372;2022-07-10T01:24:13;19.77;;;17.20;;
12625;SDS011;6378;42.684;23.372;2022-07-10T01:26:39;17.25;;;15.55;;
12625;SDS011;6378;42.684;23.372;2022-07-10T01:29:08;18.20;;;16.30;;
12625;SDS011;6378;42.684;23.372;2022-07-10T01:31:35;17.75;;;15.95;;
12625;SDS011;6378;42.684;23.372;2022-07-10T01:34:01;17.67;;;15.95;;
12625;SDS011;6378;42.684;23.372;2022-07-10T01:36:29;18.35;;;16.38;;
12625;SDS011;6378;42.684;23.372;2022-07-10T01:38:55;17.90;;;16.10;;
12625;SDS011;6378;42.684;23.372;2022-07-10T01:41:22;17.05;;;15.38;;
12625;SDS011;6378;42.684;23.372;2022-07-10T01:43:48;18.90;;;15.77;;
12625;SDS011;6378;42.684;23.372;2022-07-10T01:46:14;17.45;;;15.75;;
12625;SDS011;6378;42.684;23.372;2022-07-10T01:48:40;17.85;;;16.05;;
12625;SDS011;6378;42.684;23.372;2022-07-10T01:51:06;19.40;;;16.23;;
12625;SDS011;6378;42.684;23.372;2022-07-10T01:53:33;17.48;;;15.70;;
12625;SDS011;6378;42.684;23.372;2022-07-10T01:55:59;17.02;;;15.32;;
12625;SDS011;6378;42.684;23.372;2022-07-10T01:58:28;19.60;;;16.65;;
12625;SDS011;6378;42.684;23.372;2022-07-10T02:00:53;17.52;;;15.68;;
12625;SDS011;6378;42.684;23.372;2022-07-10T02:03:18;20.98;;;15.73;;
12625;SDS011;6378;42.684;23.372;2022-07-10T02:06:10;17.10;;;14.80;;
12625;SDS011;6378;42.684;23.372;2022-07-10T02:08:36;17.98;;;15.40;;
12625;SDS011;6378;42.684;23.372;2022-07-10T02:11:01;16.75;;;14.60;;
12625;SDS011;6378;42.684;23.372;2022-07-10T02:13:27;16.90;;;15.20;;
12625;SDS011;6378;42.684;23.372;2022-07-10T02:15:53;18.10;;;15.20;;
12625;SDS011;6378;42.684;23.372;2022-07-10T02:18:19;19.48;;;14.70;;
12625;SDS011;6378;42.684;23.372;2022-07-10T02:20:44;17.13;;;14.88;;
12625;SDS011;6378;42.684;23.372;2022-07-10T02:23:10;16.15;;;14.45;;
12625;SDS011;6378;42.684;23.372;2022-07-10T02:25:36;17.30;;;15.50;;
12625;SDS011;6378;42.684;23.372;2022-07-10T02:28:01;16.83;;;15.15;;
12625;SDS011;6378;42.684;23.372;2022-07-10T02:30:27;16.73;;;15.02;;
12625;SDS011;6378;42.684;23.372;2022-07-10T02:32:52;16.13;;;14.57;;
12625;SDS011;6378;42.684;23.372;2022-07-10T02:35:18;17.02;;;15.32;;
12625;SDS011;6378;42.684;23.372;2022-07-10T02:37:43;17.30;;;15.50;;
12625;SDS011;6378;42.684;23.372;2022-07-10T02:40:09;16.67;;;14.95;;
12625;SDS011;6378;42.684;23.372;2022-07-10T02:42:34;16.85;;;14.57;;
12625;SDS011;6378;42.684;23.372;2022-07-10T02:45:00;17.08;;;15.07;;
12625;SDS011;6378;42.684;23.372;2022-07-10T02:47:25;16.75;;;15.02;;
12625;SDS011;6378;42.684;23.372;2022-07-10T02:49:51;18.42;;;15.48;;
12625;SDS011;6378;42.684;23.372;2022-07-10T02:52:16;17.15;;;15.40;;
12625;SDS011;6378;42.684;23.372;2022-07-10T02:54:41;17.98;;;15.93;;
12625;SDS011;6378;42.684;23.372;2022-07-10T02:57:07;17.50;;;15.27;;
12625;SDS011;6378;42.684;23.372;2022-07-10T02:59:32;16.42;;;14.73;;
12625;SDS011;6378;42.684;23.372;2022-07-10T03:01:58;16.38;;;14.40;;
12625;SDS011;6378;42.684;23.372;2022-07-10T03:04:23;17.27;;;15.35;;
12625;SDS011;6378;42.684;23.372;2022-07-10T03:06:49;17.40;;;15.00;;
12625;SDS011;6378;42.684;23.372;2022-07-10T03:09:14;15.90;;;14.30;;
12625;SDS011;6378;42.684;23.372;2022-07-10T03:11:42;18.13;;;16.23;;
12625;SDS011;6378;42.684;23.372;2022-07-10T03:14:08;15.98;;;14.20;;
12625;SDS011;6378;42.684;23.372;2022-07-10T03:16:33;17.38;;;15.48;;
12625;SDS011;6378;42.684;23.372;2022-07-10T03:18:59;16.45;;;14.73;;
12625;SDS011;6378;42.684;23.372;2022-07-10T03:21:24;16.50;;;14.82;;
12625;SDS011;6378;42.684;23.372;2022-07-10T03:23:50;16.38;;;14.70;;
12625;SDS011;6378;42.684;23.372;2022-07-10T03:26:15;17.08;;;15.40;;
12625;SDS011;6378;42.684;23.372;2022-07-10T03:28:41;16.98;;;15.20;;
12625;SDS011;6378;42.684;23.372;2022-07-10T03:31:06;14.63;;;13.23;;
12625;SDS011;6378;42.684;23.372;2022-07-10T03:33:32;15.15;;;13.65;;
12625;SDS011;6378;42.684;23.372;2022-07-10T03:35:58;15.70;;;14.00;;
12625;SDS011;6378;42.684;23.372;2022-07-10T03:38:26;15.85;;;14.15;;
12625;SDS011;6378;42.684;23.372;2022-07-10T03:40:52;16.55;;;14.88;;
12625;SDS011;6378;42.684;23.372;2022-07-10T03:43:17;17.73;;;15.90;;
12625;SDS011;6378;42.684;23.372;2022-07-10T03:45:42;14.85;;;13.45;;
12625;SDS011;6378;42.684;23.372;2022-07-10T03:48:08;15.65;;;14.05;;
12625;SDS011;6378;42.684;23.372;2022-07-10T03:50:33;15.35;;;13.85;;
12625;SDS011;6378;42.684;23.372;2022-07-10T03:52:59;14.82;;;13.23;;
12625;SDS011;6378;42.684;23.372;2022-07-10T03:55:24;16.63;;;14.05;;
12625;SDS011;6378;42.684;23.372;2022-07-10T03:57:50;14.23;;;12.75;;
12625;SDS011;6378;42.684;23.372;2022-07-10T04:00:19;13.90;;;12.60;;
12625;SDS011;6378;42.684;23.372;2022-07-10T04:02:54;14.30;;;12.90;;
12625;SDS011;6378;42.684;23.372;2022-07-10T04:05:26;13.52;;;12.13;;
12625;SDS011;6378;42.684;23.372;2022-07-10T04:07:53;12.13;;;10.93;;
12625;SDS011;6378;42.684;23.372;2022-07-10T04:10:19;13.65;;;12.25;;
12625;SDS011;6378;42.684;23.372;2022-07-10T04:12:45;12.43;;;11.13;;
12625;SDS011;6378;42.684;23.372;2022-07-10T04:15:10;11.27;;;10.27;;
12625;SDS011;6378;42.684;23.372;2022-07-10T04:17:36;12.10;;;10.90;;
12625;SDS011;6378;42.684;23.372;2022-07-10T04:20:02;12.15;;;11.02;;
12625;SDS011;6378;42.684;23.372;2022-07-10T04:22:28;11.32;;;10.32;;
12625;SDS011;6378;42.684;23.372;2022-07-10T04:24:54;10.52;;;9.52;;
12625;SDS011;6378;42.684;23.372;2022-07-10T04:27:19;11.13;;;10.02;;
12625;SDS011;6378;42.684;23.372;2022-07-10T04:29:45;10.55;;;9.55;;
12625;SDS011;6378;42.684;23.372;2022-07-10T04:32:11;10.32;;;9.50;;
12625;SDS011;6378;42.684;23.372;2022-07-10T04:34:37;10.40;;;9.50;;
12625;SDS011;6378;42.684;23.372;2022-07-10T04:37:03;10.55;;;9.45;;
12625;SDS011;6378;42.684;23.372;2022-07-10T04:39:28;10.13;;;9.23;;
12625;SDS011;6378;42.684;23.372;2022-07-10T04:41:54;9.00;;;8.30;;
12625;SDS011;6378;42.684;23.372;2022-07-10T04:44:19;9.75;;;8.85;;
12625;SDS011;6378;42.684;23.372;2022-07-10T04:46:45;10.45;;;8.85;;
12625;SDS011;6378;42.684;23.372;2022-07-10T04:49:10;9.25;;;8.30;;
12625;SDS011;6378;42.684;23.372;2022-07-10T04:51:36;9.82;;;8.90;;
12625;SDS011;6378;42.684;23.372;2022-07-10T04:54:01;10.35;;;9.38;;
12625;SDS011;6378;42.684;23.372;2022-07-10T04:56:26;9.38;;;8.35;;
12625;SDS011;6378;42.684;23.372;2022-07-10T04:58:52;9.75;;;8.55;;
12625;SDS011;6378;42.684;23.372;2022-07-10T05:01:17;9.65;;;8.82;;
12625;SDS011;6378;42.684;23.372;2022-07-10T05:03:43;9.90;;;8.45;;
12625;SDS011;6378;42.684;23.372;2022-07-10T05:06:09;9.75;;;8.93;;
12625;SDS011;6378;42.684;23.372;2022-07-10T05:08:34;9.40;;;8.48;;
12625;SDS011;6378;42.684;23.372;2022-07-10T05:11:00;8.63;;;7.93;;
12625;SDS011;6378;42.684;23.372;2022-07-10T05:13:25;9.52;;;8.63;;
12625;SDS011;6378;42.684;23.372;2022-07-10T05:15:50;9.20;;;8.30;;
12625;SDS011;6378;42.684;23.372;2022-07-10T05:18:16;9.95;;;8.95;;
12625;SDS011;6378;42.684;23.372;2022-07-10T05:20:42;20.35;;;15.95;;
12625;SDS011;6378;42.684;23.372;2022-07-10T05:23:09;12.38;;;11.02;;
12625;SDS011;6378;42.684;23.372;2022-07-10T05:25:34;9.98;;;9.07;;
12625;SDS011;6378;42.684;23.372;2022-07-10T05:28:02;9.20;;;8.32;;
12625;SDS011;6378;42.684;23.372;2022-07-10T05:30:30;8.73;;;7.93;;
12625;SDS011;6378;42.684;23.372;2022-07-10T05:32:56;8.27;;;7.68;;
12625;SDS011;6378;42.684;23.372;2022-07-10T05:35:22;7.53;;;6.88;;
12625;SDS011;6378;42.684;23.372;2022-07-10T05:37:48;10.07;;;8.55;;
12625;SDS011;6378;42.684;23.372;2022-07-10T05:40:13;9.05;;;8.13;;
12625;SDS011;6378;42.684;23.372;2022-07-10T05:42:39;8.88;;;7.97;;
12625;SDS011;6378;42.684;23.372;2022-07-10T05:45:05;8.93;;;8.10;;
12625;SDS011;6378;42.684;23.372;2022-07-10T05:47:31;8.70;;;7.95;;
12625;SDS011;6378;42.684;23.372;2022-07-10T05:49:58;8.68;;;7.72;;
12625;SDS011;6378;42.684;23.372;2022-07-10T05:52:23;9.05;;;8.20;;
12625;SDS011;6378;42.684;23.372;2022-07-10T05:54:49;8.18;;;7.35;;
12625;SDS011;6378;42.684;23.372;2022-07-10T05:57:14;9.55;;;8.65;;
12625;SDS011;6378;42.684;23.372;2022-07-10T05:59:39;9.20;;;8.38;;
12625;SDS011;6378;42.684;23.372;2022-07-10T06:02:05;8.32;;;7.53;;
12625;SDS011;6378;42.684;23.372;2022-07-10T06:04:31;7.97;;;7.25;;
12625;SDS011;6378;42.684;23.372;2022-07-10T06:06:56;8.15;;;7.45;;
12625;SDS011;6378;42.684;23.372;2022-07-10T06:09:22;7.82;;;7.22;;
12625;SDS011;6378;42.684;23.372;2022-07-10T06:11:47;8.88;;;7.95;;
12625;SDS011;6378;42.684;23.372;2022-07-10T06:14:14;8.55;;;7.75;;
12625;SDS011;6378;42.684;23.372;2022-07-10T06:16:39;8.25;;;7.45;;
12625;SDS011;6378;42.684;23.372;2022-07-10T06:19:05;9.25;;;8.10;;
12625;SDS011;6378;42.684;23.372;2022-07-10T06:21:31;10.02;;;8.75;;
12625;SDS011;6378;42.684;23.372;2022-07-10T06:23:56;8.38;;;7.60;;
12625;SDS011;6378;42.684;23.372;2022-07-10T06:26:22;7.93;;;7.22;;
12625;SDS011;6378;42.684;23.372;2022-07-10T06:28:48;7.88;;;7.18;;
12625;SDS011;6378;42.684;23.372;2022-07-10T06:31:14;7.95;;;7.13;;
12625;SDS011;6378;42.684;23.372;2022-07-10T06:33:39;8.50;;;6.90;;
12625;SDS011;6378;42.684;23.372;2022-07-10T06:36:05;8.55;;;7.22;;
12625;SDS011;6378;42.684;23.372;2022-07-10T06:38:31;7.72;;;7.03;;
12625;SDS011;6378;42.684;23.372;2022-07-10T06:40:56;7.95;;;7.10;;
12625;SDS011;6378;42.684;23.372;2022-07-10T06:43:22;6.80;;;6.10;;
12625;SDS011;6378;42.684;23.372;2022-07-10T06:45:47;7.28;;;6.68;;
12625;SDS011;6378;42.684;23.372;2022-07-10T06:48:13;7.13;;;6.43;;
12625;SDS011;6378;42.684;23.372;2022-07-10T06:50:39;7.18;;;6.60;;
12625;SDS011;6378;42.684;23.372;2022-07-10T06:53:06;7.38;;;6.65;;
12625;SDS011;6378;42.684;23.372;2022-07-10T06:55:32;7.13;;;6.28;;
12625;SDS011;6378;42.684;23.372;2022-07-10T06:57:58;8.27;;;6.65;;
12625;SDS011;6378;42.684;23.372;2022-07-10T07:00:24;7.10;;;6.40;;
12625;SDS011;6378;42.684;23.372;2022-07-10T07:02:50;6.97;;;6.28;;
12625;SDS011;6378;42.684;23.372;2022-07-10T07:05:16;7.10;;;6.50;;
12625;SDS011;6378;42.684;23.372;2022-07-10T07:07:41;8.60;;;6.25;;
12625;SDS011;6378;42.684;23.372;2022-07-10T07:10:07;6.57;;;5.97;;
12625;SDS011;6378;42.684;23.372;2022-07-10T07:12:33;6.63;;;6.03;;
12625;SDS011;6378;42.684;23.372;2022-07-10T07:14:59;6.72;;;6.10;;
12625;SDS011;6378;42.684;23.372;2022-07-10T07:17:24;6.95;;;6.35;;
12625;SDS011;6378;42.684;23.372;2022-07-10T07:19:58;7.13;;;6.00;;
12625;SDS011;6378;42.684;23.372;2022-07-10T07:22:42;7.22;;;6.28;;
12625;SDS011;6378;42.684;23.372;2022-07-10T07:25:26;7.07;;;6.38;;
12625;SDS011;6378;42.684;23.372;2022-07-10T07:27:51;6.93;;;6.28;;
12625;SDS011;6378;42.684;23.372;2022-07-10T07:30:16;7.38;;;6.68;;
12625;SDS011;6378;42.684;23.372;2022-07-10T07:32:43;9.13;;;6.82;;
12625;SDS011;6378;42.684;23.372;2022-07-10T07:35:10;8.98;;;7.30;;
12625;SDS011;6378;42.684;23.372;2022-07-10T07:37:46;8.18;;;7.38;;
12625;SDS011;6378;42.684;23.372;2022-07-10T07:40:22;7.32;;;6.63;;
12625;SDS011;6378;42.684;23.372;2022-07-10T07:42:48;7.70;;;6.93;;
12625;SDS011;6378;42.684;23.372;2022-07-10T07:45:14;8.20;;;7.50;;
12625;SDS011;6378;42.684;23.372;2022-07-10T07:47:47;7.07;;;6.38;;
12625;SDS011;6378;42.684;23.372;2022-07-10T07:50:15;7.90;;;7.22;;
12625;SDS011;6378;42.684;23.372;2022-07-10T07:52:42;7.68;;;6.82;;
12625;SDS011;6378;42.684;23.372;2022-07-10T07:55:08;7.40;;;5.85;;
12625;SDS011;6378;42.684;23.372;2022-07-10T07:57:34;8.57;;;6.53;;
12625;SDS011;6378;42.684;23.372;2022-07-10T08:00:00;7.03;;;6.43;;
12625;SDS011;6378;42.684;23.372;2022-07-10T08:02:25;8.23;;;6.03;;
12625;SDS011;6378;42.684;23.372;2022-07-10T08:04:51;12.13;;;10.65;;
12625;SDS011;6378;42.684;23.372;2022-07-10T08:07:16;6.28;;;5.53;;
12625;SDS011;6378;42.684;23.372;2022-07-10T08:09:42;5.60;;;5.10;;
12625;SDS011;6378;42.684;23.372;2022-07-10T08:12:09;6.20;;;5.43;;
12625;SDS011;6378;42.684;23.372;2022-07-10T08:14:35;6.15;;;5.30;;
12625;SDS011;6378;42.684;23.372;2022-07-10T08:17:00;5.82;;;5.15;;
12625;SDS011;6378;42.684;23.372;2022-07-10T08:19:25;6.53;;;5.60;;
12625;SDS011;6378;42.684;23.372;2022-07-10T08:21:51;7.70;;;5.38;;
12625;SDS011;6378;42.684;23.372;2022-07-10T08:24:16;5.57;;;5.05;;
12625;SDS011;6378;42.684;23.372;2022-07-10T08:26:42;6.15;;;5.47;;
12625;SDS011;6378;42.684;23.372;2022-07-10T08:29:07;5.75;;;5.25;;
12625;SDS011;6378;42.684;23.372;2022-07-10T08:31:33;5.80;;;5.20;;
12625;SDS011;6378;42.684;23.372;2022-07-10T08:33:59;6.60;;;5.35;;
12625;SDS011;6378;42.684;23.372;2022-07-10T08:36:25;5.72;;;5.10;;
12625;SDS011;6378;42.684;23.372;2022-07-10T08:38:51;5.97;;;5.47;;
12625;SDS011;6378;42.684;23.372;2022-07-10T08:41:20;11.35;;;5.57;;
12625;SDS011;6378;42.684;23.372;2022-07-10T08:43:50;5.80;;;5.20;;
12625;SDS011;6378;42.684;23.372;2022-07-10T08:46:15;6.82;;;5.07;;
12625;SDS011;6378;42.684;23.372;2022-07-10T08:48:45;7.47;;;5.30;;
12625;SDS011;6378;42.684;23.372;2022-07-10T08:51:12;7.88;;;5.22;;
12625;SDS011;6378;42.684;23.372;2022-07-10T08:53:49;6.30;;;5.57;;
12625;SDS011;6378;42.684;23.372;2022-07-10T08:56:16;6.40;;;5.20;;
12625;SDS011;6378;42.684;23.372;2022-07-10T08:58:42;6.13;;;5.53;;
12625;SDS011;6378;42.684;23.372;2022-07-10T09:01:07;5.38;;;4.88;;
12625;SDS011;6378;42.684;23.372;2022-07-10T09:03:33;6.10;;;5.10;;
12625;SDS011;6378;42.684;23.372;2022-07-10T09:05:58;5.45;;;4.75;;
12625;SDS011;6378;42.684;23.372;2022-07-10T09:08:25;5.47;;;4.97;;
12625;SDS011;6378;42.684;23.372;2022-07-10T09:11:17;5.43;;;4.72;;
12625;SDS011;6378;42.684;23.372;2022-07-10T09:16:20;7.40;;;6.70;;
12625;SDS011;6378;42.684;23.372;2022-07-10T09:21:42;8.02;;;4.85;;
12625;SDS011;6378;42.684;23.372;2022-07-10T09:24:09;8.55;;;5.70;;
12625;SDS011;6378;42.684;23.372;2022-07-10T09:26:38;6.10;;;5.50;;
12625;SDS011;6378;42.684;23.372;2022-07-10T09:29:05;6.22;;;5.32;;
12625;SDS011;6378;42.684;23.372;2022-07-10T09:31:47;6.00;;;5.30;;
12625;SDS011;6378;42.684;23.372;2022-07-10T09:34:17;6.75;;;5.13;;
12625;SDS011;6378;42.684;23.372;2022-07-10T09:36:43;8.27;;;5.45;;
12625;SDS011;6378;42.684;23.372;2022-07-10T09:39:09;6.43;;;5.38;;
12625;SDS011;6378;42.684;23.372;2022-07-10T09:41:35;5.68;;;5.15;;
12625;SDS011;6378;42.684;23.372;2022-07-10T09:44:04;8.10;;;6.25;;
12625;SDS011;6378;42.684;23.372;2022-07-10T09:46:36;9.13;;;6.70;;
12625;SDS011;6378;42.684;23.372;2022-07-10T09:49:13;7.88;;;7.07;;
12625;SDS011;6378;42.684;23.372;2022-07-10T09:51:40;8.13;;;6.13;;
12625;SDS011;6378;42.684;23.372;2022-07-10T09:54:10;7.03;;;5.32;;
12625;SDS011;6378;42.684;23.372;2022-07-10T09:56:41;6.10;;;5.55;;
12625;SDS011;6378;42.684;23.372;2022-07-10T09:59:18;6.18;;;5.13;;
12625;SDS011;6378;42.684;23.372;2022-07-10T10:01:45;5.78;;;4.85;;
12625;SDS011;6378;42.684;23.372;2022-07-10T10:04:19;5.63;;;4.60;;
12625;SDS011;6378;42.684;23.372;2022-07-10T10:06:52;4.65;;;4.32;;
12625;SDS011;6378;42.684;23.372;2022-07-10T10:09:25;5.57;;;4.60;;
12625;SDS011;6378;42.684;23.372;2022-07-10T10:11:59;5.05;;;4.38;;
12625;SDS011;6378;42.684;23.372;2022-07-10T10:14:29;4.45;;;4.13;;
12625;SDS011;6378;42.684;23.372;2022-07-10T10:16:58;5.22;;;4.78;;
12625;SDS011;6378;42.684;23.372;2022-07-10T10:19:25;7.43;;;4.88;;
12625;SDS011;6378;42.684;23.372;2022-07-10T10:22:11;5.15;;;4.38;;
12625;SDS011;6378;42.684;23.372;2022-07-10T10:24:38;5.10;;;4.32;;
12625;SDS011;6378;42.684;23.372;2022-07-10T10:27:05;8.18;;;4.72;;
12625;SDS011;6378;42.684;23.372;2022-07-10T10:29:31;5.00;;;4.55;;
12625;SDS011;6378;42.684;23.372;2022-07-10T10:32:00;5.57;;;4.22;;
12625;SDS011;6378;42.684;23.372;2022-07-10T10:34:39;6.63;;;4.32;;
12625;SDS011;6378;42.684;23.372;2022-07-10T10:39:58;7.45;;;5.60;;
12625;SDS011;6378;42.684;23.372;2022-07-10T10:42:33;5.85;;;4.60;;
12625;SDS011;6378;42.684;23.372;2022-07-10T10:48:07;8.60;;;4.40;;
12625;SDS011;6378;42.684;23.372;2022-07-10T10:50:47;5.72;;;4.40;;
12625;SDS011;6378;42.684;23.372;2022-07-10T10:58:25;5.25;;;4.28;;
12625;SDS011;6378;42.684;23.372;2022-07-10T11:01:04;7.72;;;4.85;;
12625;SDS011;6378;42.684;23.372;2022-07-10T11:03:30;5.00;;;4.43;;
12625;SDS011;6378;42.684;23.372;2022-07-10T11:05:56;5.60;;;4.20;;
12625;SDS011;6378;42.684;23.372;2022-07-10T11:08:35;4.85;;;4.13;;
12625;SDS011;6378;42.684;23.372;2022-07-10T11:13:59;4.47;;;3.90;;
12625;SDS011;6378;42.684;23.372;2022-07-10T11:16:24;4.68;;;4.28;;
12625;SDS011;6378;42.684;23.372;2022-07-10T11:18:53;4.80;;;4.32;;
12625;SDS011;6378;42.684;23.372;2022-07-10T11:21:23;4.72;;;4.20;;
12625;SDS011;6378;42.684;23.372;2022-07-10T11:24:06;4.75;;;4.15;;
12625;SDS011;6378;42.684;23.372;2022-07-10T11:29:17;4.85;;;4.43;;
12625;SDS011;6378;42.684;23.372;2022-07-10T11:31:43;5.00;;;4.60;;
12625;SDS011;6378;42.684;23.372;2022-07-10T11:34:18;4.93;;;4.20;;
12625;SDS011;6378;42.684;23.372;2022-07-10T11:36:43;5.00;;;4.50;;
12625;SDS011;6378;42.684;23.372;2022-07-10T11:39:09;6.72;;;4.15;;
12625;SDS011;6378;42.684;23.372;2022-07-10T11:41:42;4.50;;;4.10;;
12625;SDS011;6378;42.684;23.372;2022-07-10T11:44:17;4.38;;;3.97;;
12625;SDS011;6378;42.684;23.372;2022-07-10T11:46:43;7.18;;;4.88;;
12625;SDS011;6378;42.684;23.372;2022-07-10T11:49:11;4.35;;;4.00;;
12625;SDS011;6378;42.684;23.372;2022-07-10T11:51:39;4.53;;;4.13;;
12625;SDS011;6378;42.684;23.372;2022-07-10T11:54:07;3.95;;;3.38;;
12625;SDS011;6378;42.684;23.372;2022-07-10T11:56:41;3.90;;;3.60;;
12625;SDS011;6378;42.684;23.372;2022-07-10T11:59:11;7.18;;;5.28;;
12625;SDS011;6378;42.684;23.372;2022-07-10T12:01:42;3.47;;;3.25;;
12625;SDS011;6378;42.684;23.372;2022-07-10T12:04:11;4.50;;;3.40;;
12625;SDS011;6378;42.684;23.372;2022-07-10T12:06:41;6.80;;;5.90;;
12625;SDS011;6378;42.684;23.372;2022-07-10T12:09:12;5.93;;;5.32;;
12625;SDS011;6378;42.684;23.372;2022-07-10T12:11:43;5.78;;;4.53;;
12625;SDS011;6378;42.684;23.372;2022-07-10T12:16:48;4.68;;;3.80;;
12625;SDS011;6378;42.684;23.372;2022-07-10T12:19:16;6.70;;;6.00;;
12625;SDS011;6378;42.684;23.372;2022-07-10T12:21:45;4.85;;;4.40;;
12625;SDS011;6378;42.684;23.372;2022-07-10T12:24:12;3.67;;;3.38;;
12625;SDS011;6378;42.684;23.372;2022-07-10T12:26:41;3.85;;;3.55;;
12625;SDS011;6378;42.684;23.372;2022-07-10T12:29:11;5.88;;;3.63;;
12625;SDS011;6378;42.684;23.372;2022-07-10T12:31:53;4.68;;;4.03;;
12625;SDS011;6378;42.684;23.372;2022-07-10T12:37:07;5.05;;;4.22;;
12625;SDS011;6378;42.684;23.372;2022-07-10T12:39:37;3.70;;;3.40;;
12625;SDS011;6378;42.684;23.372;2022-07-10T12:42:10;3.47;;;3.17;;
12625;SDS011;6378;42.684;23.372;2022-07-10T12:44:40;4.78;;;3.47;;
12625;SDS011;6378;42.684;23.372;2022-07-10T12:47:08;3.38;;;3.08;;
12625;SDS011;6378;42.684;23.372;2022-07-10T12:49:56;3.28;;;2.97;;
12625;SDS011;6378;42.684;23.372;2022-07-10T12:52:31;4.25;;;3.15;;
12625;SDS011;6378;42.684;23.372;2022-07-10T12:55:10;3.47;;;3.10;;
12625;SDS011;6378;42.684;23.372;2022-07-10T13:00:20;3.47;;;3.17;;
12625;SDS011;6378;42.684;23.372;2022-07-10T13:02:48;5.57;;;3.50;;
12625;SDS011;6378;42.684;23.372;2022-07-10T13:08:06;3.60;;;3.30;;
12625;SDS011;6378;42.684;23.372;2022-07-10T13:10:45;5.53;;;3.25;;
12625;SDS011;6378;42.684;23.372;2022-07-10T13:13:14;3.75;;;3.40;;
12625;SDS011;6378;42.684;23.372;2022-07-10T13:15:41;4.47;;;3.38;;
12625;SDS011;6378;42.684;23.372;2022-07-10T13:18:29;3.65;;;3.25;;
12625;SDS011;6378;42.684;23.372;2022-07-10T13:20:55;4.35;;;3.40;;
12625;SDS011;6378;42.684;23.372;2022-07-10T13:23:23;5.07;;;4.20;;
12625;SDS011;6378;42.684;23.372;2022-07-10T13:25:50;3.50;;;3.20;;
12625;SDS011;6378;42.684;23.372;2022-07-10T13:28:16;3.75;;;2.53;;
12625;SDS011;6378;42.684;23.372;2022-07-10T13:30:42;2.83;;;2.55;;
12625;SDS011;6378;42.684;23.372;2022-07-10T13:33:08;4.15;;;2.63;;
12625;SDS011;6378;42.684;23.372;2022-07-10T13:35:34;3.58;;;2.30;;
12625;SDS011;6378;42.684;23.372;2022-07-10T13:38:01;3.72;;;2.00;;
12625;SDS011;6378;42.684;23.372;2022-07-10T13:40:28;4.38;;;2.28;;
12625;SDS011;6378;42.684;23.372;2022-07-10T13:42:55;3.47;;;2.40;;
12625;SDS011;6378;42.684;23.372;2022-07-10T13:45:21;3.78;;;2.20;;
12625;SDS011;6378;42.684;23.372;2022-07-10T13:47:48;2.63;;;2.13;;
12625;SDS011;6378;42.684;23.372;2022-07-10T13:50:14;2.92;;;2.28;;
12625;SDS011;6378;42.684;23.372;2022-07-10T13:52:39;3.95;;;2.08;;
12625;SDS011;6378;42.684;23.372;2022-07-10T13:55:05;4.85;;;2.00;;
12625;SDS011;6378;42.684;23.372;2022-07-10T13:57:31;1.98;;;1.85;;
12625;SDS011;6378;42.684;23.372;2022-07-10T13:59:57;5.45;;;2.50;;
12625;SDS011;6378;42.684;23.372;2022-07-10T14:02:23;4.40;;;2.30;;
12625;SDS011;6378;42.684;23.372;2022-07-10T14:04:48;10.13;;;7.32;;
12625;SDS011;6378;42.684;23.372;2022-07-10T14:07:14;3.58;;;2.20;;
12625;SDS011;6378;42.684;23.372;2022-07-10T14:09:39;2.55;;;2.35;;
12625;SDS011;6378;42.684;23.372;2022-07-10T14:12:05;3.42;;;2.58;;
12625;SDS011;6378;42.684;23.372;2022-07-10T14:14:31;3.25;;;2.40;;
12625;SDS011;6378;42.684;23.372;2022-07-10T14:16:56;4.82;;;2.45;;
12625;SDS011;6378;42.684;23.372;2022-07-10T14:19:22;2.53;;;2.00;;
12625;SDS011;6378;42.684;23.372;2022-07-10T14:21:47;3.88;;;3.00;;
12625;SDS011;6378;42.684;23.372;2022-07-10T14:24:12;4.00;;;2.78;;
12625;SDS011;6378;42.684;23.372;2022-07-10T14:26:38;4.55;;;3.03;;
12625;SDS011;6378;42.684;23.372;2022-07-10T14:29:04;2.45;;;2.25;;
12625;SDS011;6378;42.684;23.372;2022-07-10T14:31:29;2.63;;;2.42;;
12625;SDS011;6378;42.684;23.372;2022-07-10T14:33:55;2.50;;;2.30;;
12625;SDS011;6378;42.684;23.372;2022-07-10T14:36:21;4.35;;;2.50;;
12625;SDS011;6378;42.684;23.372;2022-07-10T14:38:53;3.15;;;2.38;;
12625;SDS011;6378;42.684;23.372;2022-07-10T14:41:19;2.22;;;2.10;;
12625;SDS011;6378;42.684;23.372;2022-07-10T14:43:45;2.60;;;2.40;;
12625;SDS011;6378;42.684;23.372;2022-07-10T14:46:10;2.95;;;2.58;;
12625;SDS011;6378;42.684;23.372;2022-07-10T14:48:36;2.53;;;2.33;;
12625;SDS011;6378;42.684;23.372;2022-07-10T14:51:01;3.83;;;2.63;;
12625;SDS011;6378;42.684;23.372;2022-07-10T14:53:27;5.53;;;3.05;;
12625;SDS011;6378;42.684;23.372;2022-07-10T14:55:54;4.28;;;2.90;;
12625;SDS011;6378;42.684;23.372;2022-07-10T14:58:19;4.22;;;2.60;;
12625;SDS011;6378;42.684;23.372;2022-07-10T15:00:45;2.83;;;2.55;;
12625;SDS011;6378;42.684;23.372;2022-07-10T15:03:10;3.63;;;2.70;;
12625;SDS011;6378;42.684;23.372;2022-07-10T15:05:36;3.30;;;3.00;;
12625;SDS011;6378;42.684;23.372;2022-07-10T15:08:01;3.00;;;2.67;;
12625;SDS011;6378;42.684;23.372;2022-07-10T15:10:28;2.80;;;2.60;;
12625;SDS011;6378;42.684;23.372;2022-07-10T15:12:54;4.07;;;2.30;;